Kempton, Indiana
Current Conditions -  °F | °C
As of 9:55 PM on Friday 19 Dec 2014 (Local Time) from KTYQ Reporting Station
Haze Haze  
Wind Chill: 29°   Ceiling: 2500
Heat Index: 29°   Visibility: 5mi
Dew Point: 26°   Wind: 0mph
Humidity: 86%   Direction: NA
Pressure: 30.26"   Gusts: NA
Location:  40.29°N, 86.23°W
Report Text: KTYQ 200255Z AUTO 00000KT 5SM BR OVC025 M01/M03 A3026 RMK AO2 T10151035
Loading
Personal Weather Stations






























Interactive Weather Map New forecast layout! Learn more

10-Day Weather Forecast

Advertisements
Track Severe Weather on mobile